Time;durP1;ratioP1;P1;durP2;ratioP2;P2;SDS_P1;SDS_P2;PMS_P1;PMS_P2;Temp;Humidity;BMP_temperature;BMP_pressure;BME280_temperature;BME280_humidity;BME280_pressure;Samples;Min_cycle;Max_cycle;Signal;HPM_P1;HPM_P2
2022/11/12 00:00:40;;;;;;;11.17;9.60;;;8.60;99.90;;;;;;5033210;28;20172;-74
2022/11/12 00:03:06;;;;;;;11.63;10.20;;;8.50;99.90;;;;;;5024487;28;20262;-74
2022/11/12 00:05:32;;;;;;;10.60;9.50;;;8.50;99.90;;;;;;5016373;28;20178;-74
2022/11/12 00:07:58;;;;;;;11.43;10.17;;;8.50;99.90;;;;;;5016405;28;20408;-75
2022/11/12 00:10:23;;;;;;;12.33;11.03;;;8.40;99.90;;;;;;5016708;28;20635;-74
2022/11/12 00:12:49;;;;;;;12.47;11.30;;;8.30;99.90;;;;;;5016801;28;20278;-74
2022/11/12 00:15:15;;;;;;;11.80;10.53;;;8.30;99.90;;;;;;5016566;28;20185;-73
2022/11/12 00:17:40;;;;;;;12.10;10.80;;;8.20;99.90;;;;;;5016590;28;20603;-74
2022/11/12 00:20:07;;;;;;;12.77;11.53;;;8.20;99.90;;;;;;5016366;28;20197;-74
2022/11/12 00:22:33;;;;;;;11.90;10.70;;;8.20;99.90;;;;;;5016202;28;20199;-74
2022/11/12 00:24:58;;;;;;;9.47;8.57;;;8.20;99.90;;;;;;5015329;28;20414;-75
2022/11/12 00:27:24;;;;;;;10.90;9.80;;;8.20;99.90;;;;;;5016265;28;20915;-75
2022/11/12 00:29:49;;;;;;;12.53;11.30;;;8.20;99.90;;;;;;5015951;28;20667;-74
2022/11/12 00:32:15;;;;;;;11.67;10.00;;;8.20;99.90;;;;;;5015666;28;20201;-74
2022/11/12 00:34:40;;;;;;;12.10;10.83;;;8.10;99.90;;;;;;5015424;28;20228;-75
2022/11/12 00:37:06;;;;;;;11.90;10.80;;;8.10;99.90;;;;;;5015524;28;20236;-74
2022/11/12 00:39:32;;;;;;;11.40;10.30;;;8.10;99.90;;;;;;5015948;28;20176;-74
2022/11/12 00:41:58;;;;;;;15.43;10.83;;;8.10;99.90;;;;;;5015523;28;20680;-74
2022/11/12 00:44:23;;;;;;;14.17;12.07;;;8.10;99.90;;;;;;5015506;28;20174;-74
2022/11/12 00:46:49;;;;;;;11.43;10.23;;;8.00;99.90;;;;;;5014947;28;20421;-74
2022/11/12 00:49:15;;;;;;;14.53;11.13;;;8.00;99.90;;;;;;5013711;28;20177;-75
2022/11/12 00:51:41;;;;;;;11.23;9.83;;;8.00;99.90;;;;;;5014089;28;20296;-74
2022/11/12 00:54:06;;;;;;;12.07;10.50;;;8.00;99.90;;;;;;5015758;28;20978;-75
2022/11/12 00:56:32;;;;;;;12.73;11.47;;;7.90;99.90;;;;;;5015214;28;20437;-74
2022/11/12 00:58:58;;;;;;;12.43;11.13;;;7.90;99.90;;;;;;5014021;28;20577;-74
2022/11/12 01:01:25;;;;;;;10.60;9.57;;;7.90;99.90;;;;;;5015563;28;20213;-74
2022/11/12 01:03:51;;;;;;;10.90;9.17;;;7.90;99.90;;;;;;5014792;28;20404;-74
2022/11/12 01:06:19;;;;;;;9.83;8.83;;;8.00;99.90;;;;;;5015168;28;20409;-74
2022/11/12 01:08:47;;;;;;;9.93;8.93;;;7.90;99.90;;;;;;5015391;28;20414;-74
2022/11/12 01:11:16;;;;;;;12.60;10.73;;;8.00;99.90;;;;;;5015266;28;20412;-74
2022/11/12 01:13:43;;;;;;;10.97;9.97;;;7.90;99.90;;;;;;5013367;28;20416;-73
2022/11/12 01:16:15;;;;;;;10.97;9.87;;;7.90;99.90;;;;;;5013574;28;20451;-74
2022/11/12 01:18:42;;;;;;;10.57;9.47;;;7.90;99.90;;;;;;5014303;28;20417;-75
2022/11/12 01:21:07;;;;;;;9.90;8.73;;;7.80;99.90;;;;;;5015167;28;20868;-75
2022/11/12 01:23:38;;;;;;;8.90;8.10;;;7.70;99.90;;;;;;5014925;28;20437;-74
2022/11/12 01:26:09;;;;;;;9.57;8.53;;;7.70;99.90;;;;;;5015186;28;20671;-75
2022/11/12 01:28:35;;;;;;;9.50;7.43;;;7.70;99.90;;;;;;5013557;28;20423;-76
2022/11/12 01:31:17;;;;;;;9.77;8.83;;;7.70;99.90;;;;;;5014462;28;20409;-75
2022/11/12 01:33:45;;;;;;;10.80;8.20;;;7.80;99.90;;;;;;5014161;28;20550;-75
2022/11/12 01:36:11;;;;;;;8.43;7.63;;;7.70;99.90;;;;;;5013069;28;20443;-74
2022/11/12 01:38:39;;;;;;;11.20;8.30;;;7.80;99.90;;;;;;5014528;28;20465;-74
2022/11/12 01:41:06;;;;;;;9.33;8.30;;;7.90;99.90;;;;;;5014146;28;20397;-74
2022/11/12 01:43:32;;;;;;;10.23;8.80;;;7.80;99.90;;;;;;5014229;28;20917;-74
2022/11/12 01:46:01;;;;;;;10.27;8.90;;;7.80;99.90;;;;;;5014146;28;20473;-74
2022/11/12 01:48:33;;;;;;;9.53;8.53;;;7.80;99.90;;;;;;5012827;28;20417;-74
2022/11/12 01:51:01;;;;;;;10.70;9.57;;;7.90;99.90;;;;;;5014738;28;20452;-75
2022/11/12 01:53:29;;;;;;;9.60;8.60;;;7.80;99.90;;;;;;5029305;28;20416;-74
2022/11/12 01:55:55;;;;;;;14.70;9.27;;;7.80;99.90;;;;;;5032938;28;20466;-74
2022/11/12 01:58:24;;;;;;;8.10;7.40;;;7.90;99.90;;;;;;5033655;28;20769;-73
2022/11/12 02:00:50;;;;;;;11.40;9.77;;;7.80;99.90;;;;;;5033685;28;20419;-74
2022/11/12 02:03:23;;;;;;;10.97;9.70;;;7.80;99.90;;;;;;5033013;28;20516;-75
2022/11/12 02:05:55;;;;;;;10.90;8.70;;;7.70;99.90;;;;;;5033741;28;20257;-75
2022/11/12 02:08:23;;;;;;;8.90;8.00;;;7.70;99.90;;;;;;5033482;28;20395;-75
2022/11/12 02:10:49;;;;;;;8.87;8.00;;;7.70;99.90;;;;;;5040675;28;20399;-75
2022/11/12 02:15:59;;;;;;;9.47;8.53;;;7.60;99.90;;;;;;5033689;28;20487;-74
2022/11/12 02:18:25;;;;;;;9.80;8.47;;;7.60;99.90;;;;;;5016021;28;20411;-74
2022/11/12 02:20:56;;;;;;;10.53;9.53;;;7.60;99.90;;;;;;5012874;28;20191;-75
2022/11/12 02:23:22;;;;;;;8.80;8.00;;;7.60;99.90;;;;;;5013128;28;20248;-74
2022/11/12 02:25:48;;;;;;;9.77;8.83;;;7.70;99.90;;;;;;5013394;28;20412;-74
2022/11/12 02:28:14;;;;;;;9.73;8.50;;;7.70;99.90;;;;;;5013632;28;20253;-74
2022/11/12 02:30:43;;;;;;;9.10;8.20;;;7.70;99.90;;;;;;5013668;28;20172;-74
2022/11/12 02:33:09;;;;;;;8.57;7.70;;;7.70;99.90;;;;;;5012271;28;20439;-76
2022/11/12 02:35:35;;;;;;;8.93;8.03;;;7.70;99.90;;;;;;5012590;28;20416;-75
2022/11/12 02:38:01;;;;;;;7.83;7.20;;;7.80;99.90;;;;;;5013689;28;20199;-75
2022/11/12 02:40:27;;;;;;;8.97;8.10;;;7.80;99.90;;;;;;5012056;28;20208;-75
2022/11/12 02:42:52;;;;;;;11.17;8.93;;;7.80;99.90;;;;;;5013155;28;20189;-75
2022/11/12 02:45:18;;;;;;;7.47;6.73;;;7.80;99.90;;;;;;5013432;28;20601;-75
2022/11/12 02:47:44;;;;;;;7.60;6.90;;;7.80;99.90;;;;;;5012145;28;20177;-74
2022/11/12 02:50:10;;;;;;;9.00;7.57;;;7.70;99.90;;;;;;5013603;28;20420;-75
2022/11/12 02:52:35;;;;;;;7.23;6.43;;;7.60;99.90;;;;;;5013583;28;20201;-75
2022/11/12 02:55:01;;;;;;;9.67;7.83;;;7.60;99.90;;;;;;5013363;28;20567;-74
2022/11/12 02:57:28;;;;;;;8.23;7.10;;;7.60;99.90;;;;;;5013073;28;20569;-74
2022/11/12 02:59:54;;;;;;;7.30;6.60;;;7.50;99.90;;;;;;5013120;28;20644;-74
2022/11/12 03:02:19;;;;;;;9.10;7.67;;;7.50;99.90;;;;;;5013415;28;20556;-76
2022/11/12 03:04:45;;;;;;;9.73;8.70;;;7.60;99.90;;;;;;5014403;28;20633;-75
2022/11/12 03:07:10;;;;;;;7.50;6.80;;;7.60;99.90;;;;;;5014098;28;20194;-74
2022/11/12 03:09:36;;;;;;;7.40;6.70;;;7.60;99.90;;;;;;5014061;28;20168;-75
2022/11/12 03:12:01;;;;;;;8.50;7.70;;;7.70;99.90;;;;;;5013151;28;20204;-75
2022/11/12 03:14:27;;;;;;;9.07;8.17;;;7.60;99.90;;;;;;5013345;28;20197;-74
2022/11/12 03:16:52;;;;;;;10.70;7.50;;;7.60;99.90;;;;;;5012939;28;20188;-74
2022/11/12 03:19:18;;;;;;;8.50;7.70;;;7.60;99.90;;;;;;5012570;28;20664;-74
2022/11/12 03:21:44;;;;;;;9.17;8.37;;;7.60;99.90;;;;;;5013057;28;20260;-74
2022/11/12 03:24:09;;;;;;;8.63;7.73;;;7.70;99.90;;;;;;5011539;28;20164;-74
2022/11/12 03:26:35;;;;;;;9.40;7.93;;;7.70;99.90;;;;;;5011418;28;20718;-74
2022/11/12 03:29:00;;;;;;;8.50;7.70;;;7.70;99.90;;;;;;5013399;28;20173;-74
2022/11/12 03:31:26;;;;;;;8.73;7.90;;;7.70;99.90;;;;;;5013024;28;20543;-75
2022/11/12 03:33:51;;;;;;;8.20;7.40;;;7.70;99.90;;;;;;5012724;28;20220;-74
2022/11/12 03:36:17;;;;;;;8.50;7.70;;;7.70;99.90;;;;;;5015454;28;20232;-75
2022/11/12 03:38:42;;;;;;;7.43;6.83;;;7.80;99.90;;;;;;5016830;28;20641;-74
2022/11/12 03:41:08;;;;;;;8.57;7.73;;;7.70;99.90;;;;;;5016998;28;20624;-74
2022/11/12 03:43:33;;;;;;;9.80;8.90;;;7.70;99.90;;;;;;5017103;28;20244;-75
2022/11/12 03:45:59;;;;;;;8.43;7.63;;;7.60;99.90;;;;;;5016780;28;20249;-74
2022/11/12 03:48:25;;;;;;;7.23;6.53;;;7.50;99.90;;;;;;5014245;28;20166;-74
2022/11/12 03:50:50;;;;;;;8.23;7.43;;;7.40;99.90;;;;;;5016606;28;20725;-75
2022/11/12 03:53:16;;;;;;;8.40;7.57;;;7.30;99.90;;;;;;5017578;28;20247;-75
2022/11/12 03:55:41;;;;;;;7.43;6.80;;;7.30;99.90;;;;;;5018238;28;20180;-75
2022/11/12 03:58:07;;;;;;;8.80;8.00;;;7.30;99.90;;;;;;5016318;28;20254;-75
2022/11/12 04:00:33;;;;;;;8.07;7.37;;;7.30;99.90;;;;;;5016563;28;20166;-75
2022/11/12 04:02:59;;;;;;;8.10;7.30;;;7.40;99.90;;;;;;5016667;28;20272;-75
2022/11/12 04:11:01;;;;;;;7.20;6.50;;;7.40;99.90;;;;;;5016676;28;20396;-76
2022/11/12 04:13:26;;;;;;;7.20;6.57;;;7.50;99.90;;;;;;5016769;28;20919;-75
2022/11/12 04:22:02;;;;;;;7.80;6.77;;;7.60;99.90;;;;;;4996629;28;20415;-75
2022/11/12 04:27:32;;;;;;;7.10;6.50;;;7.70;99.90;;;;;;4995825;28;20382;-75
2022/11/12 04:30:17;;;;;;;8.13;7.33;;;7.60;99.90;;;;;;4997197;28;20401;-74
2022/11/12 04:32:53;;;;;;;8.83;8.00;;;7.70;99.90;;;;;;4995997;28;20426;-76
2022/11/12 04:35:20;;;;;;;8.10;7.33;;;7.70;99.90;;;;;;4996633;28;20969;-75
2022/11/12 04:37:47;;;;;;;7.60;6.87;;;7.80;99.90;;;;;;4996335;28;20538;-75
2022/11/12 04:45:48;;;;;;;7.00;6.40;;;7.90;99.90;;;;;;4996397;28;20896;-75
2022/11/12 04:48:15;;;;;;;6.30;5.80;;;7.90;99.90;;;;;;5006740;28;20472;-75
2022/11/12 04:50:43;;;;;;;7.17;6.57;;;7.80;99.90;;;;;;5014841;28;20837;-75
2022/11/12 04:53:09;;;;;;;8.43;7.63;;;7.80;99.90;;;;;;5015440;28;20825;-73
2022/11/12 04:55:34;;;;;;;8.50;7.80;;;7.80;99.90;;;;;;5015519;28;20425;-73
2022/11/12 04:58:00;;;;;;;8.53;7.73;;;7.90;99.90;;;;;;5015331;28;20436;-74
2022/11/12 05:00:26;;;;;;;8.10;7.40;;;7.90;99.90;;;;;;5015330;28;20175;-74
2022/11/12 05:02:51;;;;;;;6.80;6.10;;;7.80;99.90;;;;;;5014851;28;20184;-74
2022/11/12 05:05:17;;;;;;;7.33;6.67;;;7.80;99.90;;;;;;5015114;28;20644;-74
2022/11/12 05:07:43;;;;;;;8.73;8.00;;;7.80;99.90;;;;;;5015295;28;20169;-74
2022/11/12 05:10:08;;;;;;;8.43;7.63;;;7.80;99.90;;;;;;5015055;28;20184;-75
2022/11/12 05:12:34;;;;;;;7.17;6.50;;;7.80;99.90;;;;;;5015307;28;20667;-75
2022/11/12 05:15:00;;;;;;;7.00;6.40;;;7.80;99.90;;;;;;5012629;28;20431;-76
2022/11/12 05:17:25;;;;;;;7.40;6.70;;;7.80;99.90;;;;;;5014894;28;20196;-75
2022/11/12 05:19:51;;;;;;;6.93;6.33;;;7.80;99.90;;;;;;5014818;28;20173;-75
2022/11/12 05:22:17;;;;;;;7.20;6.50;;;7.70;99.90;;;;;;5014805;28;20231;-75
2022/11/12 05:24:43;;;;;;;6.87;6.37;;;7.70;99.90;;;;;;5014846;28;20242;-75
2022/11/12 05:27:12;;;;;;;6.10;5.50;;;7.70;99.90;;;;;;5015351;28;20694;-75
2022/11/12 05:29:37;;;;;;;6.37;5.87;;;7.70;99.90;;;;;;5013756;28;20940;-75
2022/11/12 05:32:07;;;;;;;6.37;5.77;;;7.70;99.90;;;;;;5014709;28;20434;-74
2022/11/12 05:34:33;;;;;;;6.90;6.20;;;7.70;99.90;;;;;;5013729;28;20683;-74
2022/11/12 05:37:00;;;;;;;8.30;7.30;;;7.60;99.90;;;;;;5015106;28;20489;-75
2022/11/12 05:39:26;;;;;;;6.90;6.30;;;7.60;99.90;;;;;;5015428;28;20229;-74
2022/11/12 05:41:52;;;;;;;7.37;6.77;;;7.60;99.90;;;;;;5015493;28;20465;-74
2022/11/12 05:44:18;;;;;;;6.20;5.63;;;7.60;99.90;;;;;;5016038;28;20170;-75
2022/11/12 05:46:43;;;;;;;6.47;5.87;;;7.70;99.90;;;;;;5028325;28;20262;-76
2022/11/12 05:49:09;;;;;;;6.83;6.30;;;7.70;99.90;;;;;;5015005;28;20189;-75
2022/11/12 05:51:34;;;;;;;7.23;6.53;;;7.70;99.90;;;;;;5015995;28;20723;-74
2022/11/12 05:54:01;;;;;;;8.67;7.87;;;7.50;99.90;;;;;;5015989;28;20206;-74
2022/11/12 05:56:26;;;;;;;7.53;6.90;;;7.50;99.90;;;;;;5015699;28;20239;-75
2022/11/12 05:58:52;;;;;;;7.67;6.97;;;7.40;99.90;;;;;;5015232;28;20825;-75
2022/11/12 06:01:18;;;;;;;5.90;5.40;;;7.20;99.90;;;;;;5014666;28;20268;-75
2022/11/12 06:03:43;;;;;;;6.90;6.33;;;6.90;99.90;;;;;;5015671;28;20173;-74
2022/11/12 06:06:09;;;;;;;7.17;5.93;;;6.90;99.90;;;;;;5014911;28;20415;-74
2022/11/12 06:08:35;;;;;;;7.20;6.60;;;6.90;99.90;;;;;;5017508;28;20178;-75
2022/11/12 06:11:00;;;;;;;6.80;6.20;;;6.90;99.90;;;;;;5017581;28;20615;-75
2022/11/12 06:13:26;;;;;;;5.50;5.10;;;6.90;99.90;;;;;;5018197;28;20174;-75
2022/11/12 06:15:53;;;;;;;6.10;5.50;;;6.90;99.90;;;;;;5017076;28;20200;-75
2022/11/12 06:18:19;;;;;;;8.83;7.93;;;6.80;99.90;;;;;;5037747;28;20416;-75
2022/11/12 06:21:18;;;;;;;9.43;8.53;;;6.80;99.90;;;;;;5037792;28;20467;-75
2022/11/12 06:23:30;;;;;;;12.53;9.67;;;6.90;99.90;;;;;;5036260;28;20164;-74
2022/11/12 06:25:55;;;;;;;9.30;8.50;;;6.80;99.90;;;;;;5035825;28;20424;-74
2022/11/12 06:28:21;;;;;;;9.60;8.70;;;6.90;99.90;;;;;;5036333;28;20164;-74
2022/11/12 06:30:46;;;;;;;8.67;7.87;;;6.80;99.90;;;;;;5036393;28;20192;-74
2022/11/12 06:33:12;;;;;;;7.07;6.37;;;6.80;99.90;;;;;;5035377;28;20218;-73
2022/11/12 06:35:37;;;;;;;7.50;6.83;;;6.90;99.90;;;;;;5035786;28;20211;-74
2022/11/12 06:38:03;;;;;;;6.77;6.10;;;6.90;99.90;;;;;;5035633;28;20255;-74
2022/11/12 06:40:28;;;;;;;5.67;5.23;;;6.80;99.90;;;;;;5023406;28;20172;-74
2022/11/12 06:42:58;;;;;;;6.63;6.07;;;6.80;99.90;;;;;;5014320;28;20199;-74
2022/11/12 06:45:24;;;;;;;5.90;5.50;;;6.80;99.90;;;;;;5014368;28;20178;-74
2022/11/12 06:47:50;;;;;;;5.17;4.70;;;6.70;99.90;;;;;;5013039;28;20433;-74
2022/11/12 06:50:16;;;;;;;6.20;5.70;;;6.80;99.90;;;;;;5014246;28;20829;-74
2022/11/12 06:52:41;;;;;;;6.47;5.87;;;6.70;99.90;;;;;;5014118;28;20212;-74
2022/11/12 06:55:07;;;;;;;6.23;5.63;;;6.80;99.90;;;;;;5014432;28;20407;-74
2022/11/12 06:57:33;;;;;;;5.10;4.70;;;6.90;99.90;;;;;;5012739;28;20191;-75
2022/11/12 06:59:59;;;;;;;5.67;5.17;;;6.90;99.90;;;;;;5014297;28;20164;-75
2022/11/12 07:02:25;;;;;;;4.83;4.43;;;7.00;99.90;;;;;;5013720;28;20454;-75
2022/11/12 07:04:50;;;;;;;4.53;4.13;;;7.10;99.90;;;;;;5014022;28;20169;-76
2022/11/12 07:07:16;;;;;;;5.67;5.07;;;7.10;99.90;;;;;;5014291;28;20210;-75
2022/11/12 07:09:42;;;;;;;5.37;4.87;;;7.20;99.90;;;;;;5012607;28;20713;-75
2022/11/12 07:12:07;;;;;;;5.37;4.97;;;7.20;99.90;;;;;;5013615;28;20433;-74
2022/11/12 07:14:33;;;;;;;5.30;4.87;;;7.30;99.90;;;;;;5011936;28;20211;-74
2022/11/12 07:16:59;;;;;;;4.93;4.53;;;7.40;99.90;;;;;;5013336;28;20198;-75
2022/11/12 07:19:24;;;;;;;5.10;4.70;;;7.40;99.90;;;;;;5013230;28;20197;-75
2022/11/12 07:21:50;;;;;;;5.70;4.80;;;7.30;99.90;;;;;;5013255;28;20611;-75
2022/11/12 07:24:15;;;;;;;4.83;4.43;;;7.50;99.90;;;;;;5013822;28;20199;-75
2022/11/12 07:26:41;;;;;;;5.60;5.10;;;7.60;99.90;;;;;;5012276;28;20180;-75
2022/11/12 07:29:07;;;;;;;7.50;5.23;;;7.70;99.90;;;;;;5013742;28;20201;-75
2022/11/12 07:31:33;;;;;;;4.67;4.23;;;7.70;99.90;;;;;;5013565;28;20285;-75
2022/11/12 07:33:59;;;;;;;5.17;4.77;;;7.70;99.90;;;;;;5012884;28;20451;-75
2022/11/12 07:36:25;;;;;;;5.57;5.07;;;7.70;99.90;;;;;;5013314;28;20278;-75
2022/11/12 07:38:53;;;;;;;5.97;5.47;;;7.90;99.90;;;;;;5015810;28;20826;-76
2022/11/12 07:41:21;;;;;;;6.20;5.60;;;8.00;99.90;;;;;;5013184;28;20504;-75
2022/11/12 07:43:48;;;;;;;5.73;5.17;;;8.10;99.90;;;;;;5013229;28;20412;-75
2022/11/12 07:46:22;;;;;;;6.03;5.27;;;8.10;99.90;;;;;;5012791;28;20933;-74
2022/11/12 07:48:48;;;;;;;7.80;6.00;;;8.10;99.90;;;;;;5011630;28;20436;-74
2022/11/12 07:51:24;;;;;;;5.60;5.10;;;8.10;99.90;;;;;;5012688;28;20410;-74
2022/11/12 07:53:52;;;;;;;5.80;5.37;;;8.10;99.90;;;;;;5013176;28;20495;-75
2022/11/12 07:56:20;;;;;;;5.77;5.27;;;8.10;99.90;;;;;;5013004;28;20646;-75
2022/11/12 07:58:46;;;;;;;5.23;4.73;;;8.10;99.90;;;;;;5012997;28;20464;-73
2022/11/12 08:01:37;;;;;;;5.50;5.00;;;8.10;99.90;;;;;;5012622;28;20497;-74
2022/11/12 08:04:05;;;;;;;5.73;5.30;;;8.20;99.90;;;;;;5013100;28;20438;-74
2022/11/12 08:06:32;;;;;;;5.30;4.83;;;8.20;99.90;;;;;;5013627;28;20476;-74
2022/11/12 08:09:00;;;;;;;5.77;5.30;;;8.30;99.90;;;;;;5013550;28;20436;-74
2022/11/12 08:11:26;;;;;;;5.50;5.00;;;8.30;99.90;;;;;;5013103;28;20511;-74
2022/11/12 08:13:52;;;;;;;5.57;4.97;;;8.20;99.90;;;;;;5012048;28;20994;-73
2022/11/12 08:16:18;;;;;;;4.73;4.43;;;7.90;99.90;;;;;;5012002;28;20485;-75
2022/11/12 08:18:44;;;;;;;5.27;4.87;;;7.80;99.90;;;;;;5013876;28;20174;-75
2022/11/12 08:21:12;;;;;;;6.10;5.60;;;7.70;99.90;;;;;;5011822;28;20183;-76
2022/11/12 08:23:38;;;;;;;5.97;5.43;;;7.60;99.90;;;;;;5015446;28;20416;-74
2022/11/12 08:26:06;;;;;;;5.23;4.73;;;7.70;99.90;;;;;;5016328;28;20509;-74
2022/11/12 08:28:33;;;;;;;5.07;4.57;;;8.00;99.90;;;;;;5016391;28;20456;-74
2022/11/12 08:31:08;;;;;;;6.17;5.57;;;8.20;99.90;;;;;;5014268;28;20961;-75
2022/11/12 08:33:34;;;;;;;5.13;4.73;;;8.40;99.90;;;;;;5015974;28;20476;-74
2022/11/12 08:36:08;;;;;;;5.43;4.97;;;8.50;99.90;;;;;;5016923;28;20928;-74
2022/11/12 08:38:34;;;;;;;6.60;6.00;;;8.60;99.90;;;;;;5016723;28;20163;-73
2022/11/12 08:41:01;;;;;;;5.63;5.13;;;8.50;99.90;;;;;;5014678;28;20419;-74
2022/11/12 08:43:26;;;;;;;5.63;5.10;;;8.60;99.90;;;;;;5015853;28;20461;-74
2022/11/12 08:45:52;;;;;;;6.43;5.83;;;8.80;99.90;;;;;;5016186;28;20417;-73
2022/11/12 08:48:18;;;;;;;5.90;5.43;;;8.80;99.90;;;;;;5010519;28;20661;-75
2022/11/12 08:50:43;;;;;;;5.63;5.13;;;8.80;99.90;;;;;;4996534;28;20172;-74
2022/11/12 08:53:11;;;;;;;6.80;6.20;;;8.90;99.90;;;;;;5008319;28;20306;-75
2022/11/12 08:55:37;;;;;;;5.90;5.40;;;9.10;99.90;;;;;;5015644;28;20581;-74
2022/11/12 08:58:03;;;;;;;5.97;5.47;;;9.20;99.90;;;;;;5013790;28;20865;-74
2022/11/12 09:00:32;;;;;;;6.47;5.60;;;9.40;99.90;;;;;;5015468;28;20540;-74
2022/11/12 09:02:59;;;;;;;5.27;4.83;;;9.60;99.90;;;;;;5015105;28;20942;-75
2022/11/12 09:05:25;;;;;;;5.10;4.60;;;9.90;99.90;;;;;;5015669;28;20773;-73
2022/11/12 09:08:05;;;;;;;6.20;5.60;;;10.00;99.90;;;;;;5015473;28;20530;-74
2022/11/12 09:10:32;;;;;;;5.10;4.70;;;9.70;99.90;;;;;;5016515;28;20263;-74
2022/11/12 09:12:57;;;;;;;6.53;5.93;;;9.60;99.90;;;;;;5014780;28;20445;-74
2022/11/12 09:15:24;;;;;;;8.40;7.70;;;9.50;99.90;;;;;;5015093;28;20411;-74
2022/11/12 09:18:01;;;;;;;6.27;5.67;;;9.40;99.90;;;;;;5015124;28;20538;-74
2022/11/12 09:20:28;;;;;;;6.67;5.67;;;9.60;99.90;;;;;;5013661;28;20409;-73
2022/11/12 09:23:17;;;;;;;6.40;5.80;;;10.00;99.90;;;;;;5014784;28;20424;-74
2022/11/12 09:25:43;;;;;;;6.87;6.27;;;10.30;99.90;;;;;;5015191;28;20919;-73
2022/11/12 09:28:14;;;;;;;5.80;5.30;;;10.70;99.90;;;;;;5013242;28;20427;-74
2022/11/12 09:30:46;;;;;;;6.70;6.20;;;10.70;99.90;;;;;;5016164;28;20398;-75
2022/11/12 09:33:13;;;;;;;6.97;6.37;;;10.50;99.90;;;;;;5015300;28;20440;-75
2022/11/12 09:35:38;;;;;;;6.23;5.73;;;10.20;99.90;;;;;;5015895;28;20404;-74
2022/11/12 09:38:04;;;;;;;5.70;5.20;;;10.10;99.90;;;;;;5016703;28;21039;-74
2022/11/12 09:40:49;;;;;;;6.33;5.73;;;10.50;99.90;;;;;;5014582;28;20172;-74
2022/11/12 09:43:26;;;;;;;7.20;6.53;;;11.00;99.90;;;;;;5000270;28;20290;-74
2022/11/12 09:45:55;;;;;;;8.50;6.70;;;10.90;99.90;;;;;;5013756;28;20465;-74
2022/11/12 09:48:25;;;;;;;7.47;6.63;;;10.70;99.90;;;;;;5013462;28;20419;-73
2022/11/12 09:50:58;;;;;;;7.70;7.00;;;10.70;99.90;;;;;;5014979;28;20435;-74
2022/11/12 09:53:51;;;;;;;6.33;5.83;;;10.90;99.90;;;;;;5013117;28;20766;-73
2022/11/12 09:56:19;;;;;;;8.30;7.47;;;11.20;99.90;;;;;;5014736;28;20481;-74
2022/11/12 09:58:45;;;;;;;8.30;7.50;;;11.20;99.90;;;;;;5014292;28;20414;-75
2022/11/12 10:01:21;;;;;;;7.73;7.03;;;11.20;99.90;;;;;;5012744;28;20411;-74
2022/11/12 10:04:33;;;;;;;9.27;8.23;;;11.10;99.90;;;;;;5013603;28;20171;-74
2022/11/12 10:07:39;;;;;;;7.47;6.77;;;11.30;99.90;;;;;;4987090;28;20433;-74
2022/11/12 10:10:13;;;;;;;10.33;9.33;;;11.30;99.90;;;;;;5011051;28;20430;-74
2022/11/12 10:13:02;;;;;;;8.70;7.90;;;11.30;99.90;;;;;;5012499;28;20439;-74
2022/11/12 10:18:37;;;;;;;10.37;9.37;;;11.10;99.90;;;;;;5013039;28;20456;-74
2022/11/12 10:21:26;;;;;;;9.57;8.57;;;11.50;99.90;;;;;;5013642;28;20399;-74
2022/11/12 10:23:52;;;;;;;8.07;7.37;;;11.90;99.90;;;;;;5012575;28;20406;-74
2022/11/12 10:26:20;;;;;;;9.27;8.23;;;12.00;99.90;;;;;;5014160;28;20443;-74
2022/11/12 10:28:51;;;;;;;11.03;7.90;;;12.30;99.90;;;;;;5012274;28;20449;-74
2022/11/12 10:31:19;;;;;;;8.00;7.20;;;12.40;99.90;;;;;;5012560;28;20424;-74
2022/11/12 10:33:45;;;;;;;8.23;7.47;;;12.10;99.90;;;;;;5013164;28;20480;-74
2022/11/12 10:36:27;;;;;;;8.60;7.80;;;11.90;99.90;;;;;;5013353;28;20413;-74
2022/11/12 10:38:54;;;;;;;8.60;7.80;;;11.70;99.90;;;;;;5013800;28;20442;-74
2022/11/12 10:41:26;;;;;;;7.70;7.10;;;11.70;99.90;;;;;;5013714;28;20428;-74
2022/11/12 10:43:59;;;;;;;7.70;7.00;;;11.70;99.90;;;;;;5012864;28;20455;-74
2022/11/12 10:46:31;;;;;;;7.67;6.93;;;12.00;99.90;;;;;;5011728;28;20411;-73
2022/11/12 10:49:02;;;;;;;7.67;6.97;;;12.70;99.90;;;;;;5012415;28;20429;-74
2022/11/12 10:51:34;;;;;;;7.17;6.30;;;13.40;99.90;;;;;;5013293;28;20452;-75
2022/11/12 10:54:25;;;;;;;7.77;6.97;;;14.30;99.90;;;;;;5013436;28;20477;-74
2022/11/12 10:56:51;;;;;;;8.13;7.30;;;15.40;99.90;;;;;;5005411;28;20456;-74
2022/11/12 10:59:24;;;;;;;7.50;6.70;;;15.50;99.90;;;;;;5013707;28;20418;-75
2022/11/12 11:01:58;;;;;;;7.67;6.93;;;16.30;99.90;;;;;;5014174;28;20430;-75
2022/11/12 11:04:34;;;;;;;8.43;7.63;;;15.90;99.90;;;;;;5012929;28;20868;-75
2022/11/12 11:07:26;;;;;;;8.17;7.37;;;16.80;99.90;;;;;;5013560;28;20387;-74
2022/11/12 11:09:54;;;;;;;7.57;6.97;;;16.80;99.90;;;;;;5010393;28;20411;-75
2022/11/12 11:12:29;;;;;;;8.70;7.90;;;17.30;99.90;;;;;;5013210;28;20431;-74
2022/11/12 11:15:10;;;;;;;7.47;6.70;;;17.50;99.90;;;;;;5013362;28;20950;-74
2022/11/12 11:17:36;;;;;;;7.53;6.83;;;18.20;99.90;;;;;;5013170;28;20446;-74
2022/11/12 11:20:24;;;;;;;7.80;7.10;;;17.80;99.90;;;;;;5013190;28;20430;-74
2022/11/12 11:22:55;;;;;;;8.70;7.90;;;16.90;99.90;;;;;;5015599;28;20674;-74
2022/11/12 11:25:27;;;;;;;7.33;6.63;;;17.30;99.90;;;;;;5013833;28;20452;-75
2022/11/12 11:28:00;;;;;;;8.30;7.60;;;17.80;99.90;;;;;;5014030;28;20458;-75
2022/11/12 11:30:26;;;;;;;7.87;7.27;;;18.20;99.90;;;;;;5013380;28;20399;-73
2022/11/12 11:32:51;;;;;;;9.10;8.07;;;18.60;99.90;;;;;;5012815;28;20426;-74
2022/11/12 11:35:38;;;;;;;7.17;6.63;;;18.90;99.90;;;;;;5012641;28;20603;-74
2022/11/12 11:38:19;;;;;;;7.93;6.80;;;18.90;99.90;;;;;;5013213;28;20276;-74
2022/11/12 11:41:13;;;;;;;7.10;6.50;;;17.80;99.90;;;;;;5011890;28;20418;-74
2022/11/12 11:43:44;;;;;;;6.90;6.30;;;18.10;99.90;;;;;;5013161;28;20411;-74
2022/11/12 11:46:44;;;;;;;6.40;5.83;;;19.30;99.90;;;;;;5011517;28;20447;-74
2022/11/12 11:49:31;;;;;;;5.30;4.90;;;19.70;99.60;;;;;;4997646;28;20434;-74
2022/11/12 11:52:24;;;;;;;6.53;6.03;;;20.40;98.30;;;;;;5012637;28;20814;-74
2022/11/12 11:55:00;;;;;;;6.70;6.20;;;18.60;99.50;;;;;;5012893;28;20386;-74
2022/11/12 11:57:54;;;;;;;6.57;6.00;;;18.90;99.90;;;;;;5014072;28;20585;-74
2022/11/12 12:00:24;;;;;;;7.10;6.47;;;19.00;99.60;;;;;;5016668;28;20414;-72
2022/11/12 12:03:15;;;;;;;8.03;7.23;;;18.80;99.90;;;;;;5015694;28;20949;-73
2022/11/12 12:05:56;;;;;;;8.10;7.30;;;19.40;99.10;;;;;;5016664;28;20379;-74
2022/11/12 12:08:41;;;;;;;7.90;7.30;;;19.10;99.50;;;;;;4997156;28;20400;-73
2022/11/12 12:11:13;;;;;;;7.83;7.13;;;17.80;99.90;;;;;;4996665;28;20430;-73
2022/11/12 12:13:58;;;;;;;7.43;6.77;;;17.90;99.90;;;;;;4996532;28;20482;-73
2022/11/12 12:16:51;;;;;;;8.00;7.30;;;17.20;99.90;;;;;;4996273;28;20439;-74
2022/11/12 12:19:35;;;;;;;8.90;7.90;;;16.90;99.90;;;;;;4996910;28;20804;-73
2022/11/12 12:22:06;;;;;;;8.57;7.80;;;16.70;99.90;;;;;;4996342;28;20799;-73
2022/11/12 12:24:45;;;;;;;7.57;6.97;;;18.20;99.90;;;;;;4996689;28;20787;-74
2022/11/12 12:27:18;;;;;;;7.53;6.90;;;18.40;99.90;;;;;;4996534;28;20894;-74
2022/11/12 12:29:48;;;;;;;7.70;7.00;;;19.30;99.80;;;;;;4996628;28;20447;-74
2022/11/12 12:32:34;;;;;;;7.13;6.53;;;18.90;99.30;;;;;;4996170;28;20430;-74
2022/11/12 12:35:18;;;;;;;7.13;6.53;;;19.50;99.20;;;;;;4996672;28;20396;-74
2022/11/12 12:37:47;;;;;;;8.03;7.03;;;19.70;98.30;;;;;;5011304;28;20824;-74
2022/11/12 12:40:30;;;;;;;6.67;6.07;;;19.90;98.80;;;;;;5015957;28;20439;-74
2022/11/12 12:43:12;;;;;;;7.10;6.40;;;19.30;98.40;;;;;;5014270;28;20442;-74
2022/11/12 12:45:42;;;;;;;6.53;6.03;;;18.80;98.70;;;;;;5015578;28;20477;-74
2022/11/12 12:48:35;;;;;;;6.63;6.03;;;17.30;99.90;;;;;;5013002;28;20407;-74
2022/11/12 12:51:01;;;;;;;7.77;6.70;;;16.40;99.90;;;;;;4994102;28;20974;-74
2022/11/12 12:53:26;;;;;;;7.63;6.80;;;16.30;99.90;;;;;;4996359;28;20448;-74
2022/11/12 12:56:01;;;;;;;6.60;6.00;;;16.70;99.90;;;;;;4996834;28;20247;-74
2022/11/12 12:58:44;;;;;;;7.53;6.40;;;16.20;99.90;;;;;;4995848;28;20208;-74
2022/11/12 13:01:33;;;;;;;9.77;7.70;;;15.80;99.90;;;;;;4995955;28;20985;-74
2022/11/12 13:04:08;;;;;;;8.20;7.30;;;16.00;99.90;;;;;;4995901;28;20395;-73
2022/11/12 13:06:36;;;;;;;8.30;7.47;;;16.00;99.90;;;;;;4994832;28;20760;-74
2022/11/12 13:09:11;;;;;;;6.90;6.20;;;16.20;99.90;;;;;;4994958;28;20415;-74
2022/11/12 13:14:35;;;;;;;6.77;6.17;;;16.80;99.90;;;;;;4995208;28;20459;-74
2022/11/12 13:17:03;;;;;;;6.90;6.20;;;16.60;99.90;;;;;;4995061;28;20820;-74
2022/11/12 13:19:31;;;;;;;6.70;6.10;;;16.70;99.90;;;;;;5007206;28;20427;-74
2022/11/12 13:22:15;;;;;;;7.57;6.87;;;16.80;99.90;;;;;;5014713;28;20423;-75
2022/11/12 13:25:09;;;;;;;7.27;5.97;;;16.60;99.90;;;;;;5014887;28;20403;-74
2022/11/12 13:27:44;;;;;;;6.93;6.30;;;16.80;99.90;;;;;;5014826;28;20403;-74
2022/11/12 13:30:12;;;;;;;6.50;5.90;;;16.90;99.90;;;;;;5014529;28;20402;-73
2022/11/12 13:32:52;;;;;;;8.07;6.07;;;17.00;99.90;;;;;;5014641;28;20862;-73
2022/11/12 13:35:21;;;;;;;6.53;5.97;;;17.00;99.90;;;;;;5014217;28;20391;-73